createdAt,value
2023-05-16T00:01:15.872Z,17.45
2023-05-16T00:03:42.577Z,17.33
2023-05-16T00:06:09.139Z,16.23
2023-05-16T00:08:35.272Z,15.55
2023-05-16T00:11:01.105Z,14.88
2023-05-16T00:13:28.993Z,15.50
2023-05-16T00:15:55.502Z,15.25
2023-05-16T00:18:22.251Z,14.77
2023-05-16T00:20:49.142Z,15.88
2023-05-16T00:23:14.906Z,16.80
2023-05-16T00:25:40.676Z,18.13
2023-05-16T00:28:08.005Z,18.48
2023-05-16T00:30:34.556Z,18.60
2023-05-16T00:33:01.268Z,17.58
2023-05-16T00:35:27.235Z,16.95
2023-05-16T00:37:53.020Z,17.17
2023-05-16T00:40:18.957Z,15.95
2023-05-16T00:42:44.844Z,10.45
2023-05-16T00:45:13.200Z,4.20
2023-05-16T00:47:39.031Z,3.53
2023-05-16T00:50:06.584Z,3.38
2023-05-16T00:52:33.041Z,3.05
2023-05-16T00:54:59.134Z,3.80
2023-05-16T00:57:25.040Z,3.50
2023-05-16T00:59:51.113Z,3.58
2023-05-16T01:02:17.286Z,3.53
2023-05-16T01:04:43.866Z,4.10
2023-05-16T01:07:10.033Z,3.65
2023-05-16T01:09:36.055Z,4.55
2023-05-16T01:12:13.995Z,4.43
2023-05-16T01:14:59.779Z,4.55
2023-05-16T01:17:47.481Z,4.72
2023-05-16T01:20:39.934Z,4.68
2023-05-16T01:23:26.096Z,4.90
2023-05-16T01:26:11.052Z,4.80
2023-05-16T01:28:38.810Z,4.73
2023-05-16T01:31:05.210Z,4.55
2023-05-16T01:33:31.108Z,5.30
2023-05-16T01:36:05.913Z,4.57
2023-05-16T01:38:50.414Z,4.82
2023-05-16T01:42:07.301Z,5.18
2023-05-16T01:44:59.175Z,4.35
2023-05-16T01:47:27.201Z,5.47
2023-05-16T01:50:17.082Z,4.07
2023-05-16T01:52:58.239Z,4.85
2023-05-16T01:55:46.016Z,4.40
2023-05-16T01:58:14.651Z,4.38
2023-05-16T02:00:41.618Z,4.68
2023-05-16T02:03:07.929Z,3.85
2023-05-16T02:05:34.221Z,5.05
2023-05-16T02:08:00.673Z,4.18
2023-05-16T02:10:27.483Z,4.80
2023-05-16T02:12:53.588Z,4.57
2023-05-16T02:15:19.782Z,4.65
2023-05-16T02:17:46.645Z,3.75
2023-05-16T02:20:12.699Z,3.47
2023-05-16T02:22:38.594Z,3.35
2023-05-16T02:25:05.354Z,3.47
2023-05-16T02:27:31.610Z,3.40
2023-05-16T02:29:58.059Z,3.88
2023-05-16T02:32:23.981Z,3.60
2023-05-16T02:34:49.851Z,3.38
2023-05-16T02:37:15.829Z,3.85
2023-05-16T02:39:41.699Z,2.63
2023-05-16T02:42:07.559Z,2.53
2023-05-16T02:44:33.622Z,2.60
2023-05-16T02:46:59.434Z,2.58
2023-05-16T02:49:25.663Z,2.63
2023-05-16T02:51:51.666Z,2.13
2023-05-16T02:54:18.086Z,1.77
2023-05-16T02:56:44.260Z,1.90
2023-05-16T02:59:10.930Z,1.83
2023-05-16T03:01:37.007Z,1.40
2023-05-16T03:04:03.361Z,1.42
2023-05-16T03:06:32.228Z,1.35
2023-05-16T03:08:58.094Z,1.55
2023-05-16T03:11:24.160Z,1.20
2023-05-16T03:13:50.118Z,0.95
2023-05-16T03:16:16.059Z,1.00
2023-05-16T03:18:42.521Z,1.52
2023-05-16T03:21:08.405Z,1.30
2023-05-16T03:23:34.262Z,1.60
2023-05-16T03:26:00.403Z,1.60
2023-05-16T03:28:26.243Z,1.60
2023-05-16T03:30:52.416Z,1.50
2023-05-16T03:33:21.153Z,1.45
2023-05-16T03:35:47.069Z,1.50
2023-05-16T03:38:12.907Z,2.03
2023-05-16T03:40:39.264Z,1.73
2023-05-16T03:43:05.166Z,2.20
2023-05-16T03:45:31.148Z,2.70
2023-05-16T03:47:57.549Z,3.65
2023-05-16T03:50:23.714Z,2.78
2023-05-16T03:52:49.671Z,3.55
2023-05-16T03:55:15.820Z,3.58
2023-05-16T03:57:42.311Z,4.03
2023-05-16T04:00:13.256Z,3.60
2023-05-16T04:02:40.152Z,3.53
2023-05-16T04:05:10.698Z,3.63
2023-05-16T04:07:37.340Z,3.75
2023-05-16T04:10:04.390Z,4.18
2023-05-16T04:12:30.262Z,3.50
2023-05-16T04:14:56.137Z,3.38
2023-05-16T04:17:22.006Z,4.10
2023-05-16T04:19:47.904Z,3.35
2023-05-16T04:22:13.744Z,4.00
2023-05-16T04:24:39.698Z,3.67
2023-05-16T04:27:08.247Z,4.00
2023-05-16T04:29:35.040Z,4.13
2023-05-16T04:32:01.821Z,4.13
2023-05-16T04:34:27.677Z,4.72
2023-05-16T04:36:54.756Z,4.88
2023-05-16T04:39:20.832Z,4.78
2023-05-16T04:41:47.060Z,4.70
2023-05-16T04:44:12.921Z,4.85
2023-05-16T04:46:39.224Z,5.00
2023-05-16T04:49:05.443Z,4.63
2023-05-16T04:51:33.232Z,5.40
2023-05-16T04:53:59.523Z,4.97
2023-05-16T04:56:26.372Z,6.20
2023-05-16T04:58:52.638Z,6.13
2023-05-16T05:01:18.513Z,6.38
2023-05-16T05:07:35.340Z,5.63
2023-05-16T05:10:01.636Z,5.15
2023-05-16T05:12:27.859Z,5.15
2023-05-16T05:14:54.136Z,5.90
2023-05-16T05:17:20.987Z,5.78
2023-05-16T05:19:47.677Z,6.43
2023-05-16T05:22:14.325Z,4.97
2023-05-16T05:24:40.276Z,5.07
2023-05-16T05:27:06.160Z,4.10
2023-05-16T05:29:32.051Z,4.40
2023-05-16T05:31:58.931Z,4.38
2023-05-16T05:34:24.829Z,4.03
2023-05-16T05:36:50.664Z,4.07
2023-05-16T05:39:16.690Z,3.97
2023-05-16T05:41:42.571Z,3.45
2023-05-16T05:44:08.414Z,3.45
2023-05-16T05:46:34.543Z,3.42
2023-05-16T05:49:00.775Z,3.33
2023-05-16T05:51:26.824Z,3.55
2023-05-16T05:53:53.498Z,3.08
2023-05-16T05:56:20.706Z,3.80
2023-05-16T05:58:46.848Z,4.47
2023-05-16T06:01:12.779Z,4.35
2023-05-16T06:03:38.954Z,2.88
2023-05-16T06:06:05.099Z,3.40
2023-05-16T06:08:30.876Z,3.75
2023-05-16T06:10:56.696Z,4.10
2023-05-16T06:13:22.547Z,3.97
2023-05-16T06:15:52.381Z,3.92
2023-05-16T06:18:18.383Z,3.75
2023-05-16T06:20:44.356Z,3.78
2023-05-16T06:23:10.220Z,3.20
2023-05-16T06:25:36.093Z,3.83
2023-05-16T06:28:01.939Z,2.95
2023-05-16T06:30:27.798Z,3.13
2023-05-16T06:32:53.937Z,3.40
2023-05-16T06:35:20.248Z,3.22
2023-05-16T06:37:46.072Z,3.95
2023-05-16T06:40:14.725Z,3.13
2023-05-16T06:42:40.627Z,3.47
2023-05-16T06:45:07.299Z,3.40
2023-05-16T06:47:33.364Z,3.15
2023-05-16T06:49:59.269Z,3.60
2023-05-16T06:52:25.315Z,3.33
2023-05-16T06:54:52.182Z,3.58
2023-05-16T06:57:18.035Z,3.40
2023-05-16T06:59:44.010Z,3.70
2023-05-16T07:02:10.005Z,3.58
2023-05-16T07:04:37.197Z,5.07
2023-05-16T07:07:03.836Z,3.03
2023-05-16T07:09:30.614Z,2.83
2023-05-16T07:11:56.622Z,4.25
2023-05-16T07:14:22.687Z,4.13
2023-05-16T07:16:48.606Z,3.60
2023-05-16T07:19:14.605Z,2.40
2023-05-16T07:21:40.917Z,3.92
2023-05-16T07:24:07.411Z,3.70
2023-05-16T07:26:33.412Z,3.08
2023-05-16T07:28:59.383Z,3.63
2023-05-16T07:31:25.308Z,3.38
2023-05-16T07:33:51.237Z,3.80
2023-05-16T07:36:17.773Z,3.05
2023-05-16T07:38:44.299Z,3.08
2023-05-16T07:41:10.249Z,2.58
2023-05-16T07:43:36.234Z,3.35
2023-05-16T07:46:02.723Z,2.53
2023-05-16T07:48:28.681Z,2.80
2023-05-16T07:50:55.843Z,2.63
2023-05-16T07:53:21.945Z,2.95
2023-05-16T07:55:48.704Z,3.35
2023-05-16T07:58:14.706Z,2.40
2023-05-16T08:00:40.713Z,3.30
2023-05-16T08:03:06.760Z,3.13
2023-05-16T08:05:32.898Z,2.70
2023-05-16T08:07:58.824Z,2.83
2023-05-16T08:10:25.075Z,2.60
2023-05-16T08:12:52.596Z,4.30
2023-05-16T08:15:18.640Z,3.00
2023-05-16T08:17:45.006Z,3.03
2023-05-16T08:20:11.744Z,3.08
2023-05-16T08:22:38.011Z,2.03
2023-05-16T08:25:04.517Z,3.15
2023-05-16T08:27:30.408Z,2.33
2023-05-16T08:29:56.210Z,3.05
2023-05-16T08:32:22.569Z,2.95
2023-05-16T08:34:48.459Z,2.17
2023-05-16T08:37:15.960Z,1.90
2023-05-16T08:39:43.184Z,1.70
2023-05-16T08:42:09.132Z,2.38
2023-05-16T08:44:35.051Z,2.05
2023-05-16T08:47:12.220Z,2.88
2023-05-16T08:49:40.812Z,2.72
2023-05-16T08:52:09.136Z,2.00
2023-05-16T08:54:36.701Z,1.70
2023-05-16T08:57:04.231Z,2.05
2023-05-16T08:59:30.951Z,2.42
2023-05-16T09:01:57.584Z,2.47
2023-05-16T09:04:25.326Z,2.28
2023-05-16T09:06:51.790Z,2.72
2023-05-16T09:09:17.708Z,2.22
2023-05-16T09:11:43.714Z,2.50
2023-05-16T09:14:09.569Z,1.88
2023-05-16T09:16:35.477Z,2.20
2023-05-16T09:19:01.579Z,2.05
2023-05-16T09:21:33.449Z,2.10
2023-05-16T09:24:06.659Z,1.98
2023-05-16T09:26:39.298Z,2.67
2023-05-16T09:29:12.494Z,2.30
2023-05-16T09:31:39.073Z,1.75
2023-05-16T09:34:11.984Z,1.67
2023-05-16T09:36:38.471Z,2.22
2023-05-16T09:39:07.553Z,2.40
2023-05-16T09:41:34.764Z,1.90
2023-05-16T09:44:05.350Z,1.35
2023-05-16T09:46:34.205Z,2.03
2023-05-16T09:49:00.120Z,1.85
2023-05-16T09:51:26.496Z,1.63
2023-05-16T09:53:52.447Z,1.95
2023-05-16T09:56:18.461Z,2.13
2023-05-16T09:58:45.617Z,1.70
2023-05-16T10:01:12.087Z,2.35
2023-05-16T10:03:40.088Z,1.88
2023-05-16T10:06:07.651Z,2.05
2023-05-16T10:08:35.852Z,1.77
2023-05-16T10:11:03.952Z,1.23
2023-05-16T10:13:32.506Z,1.42
2023-05-16T10:15:59.883Z,2.03
2023-05-16T10:18:30.679Z,1.30
2023-05-16T10:21:11.227Z,1.40
2023-05-16T10:23:42.004Z,1.70
2023-05-16T10:26:08.609Z,1.83
2023-05-16T10:28:35.954Z,1.30
2023-05-16T10:31:02.508Z,1.33
2023-05-16T10:33:28.655Z,1.20
2023-05-16T10:35:55.259Z,1.27
2023-05-16T10:38:23.685Z,1.38
2023-05-16T10:40:50.674Z,1.52
2023-05-16T10:43:25.197Z,1.52
2023-05-16T10:45:59.131Z,1.60
2023-05-16T10:48:33.248Z,1.05
2023-05-16T10:50:59.354Z,1.42
2023-05-16T10:53:28.078Z,1.40
2023-05-16T10:56:00.455Z,1.63
2023-05-16T10:58:38.293Z,1.60
2023-05-16T11:01:18.945Z,1.83
2023-05-16T11:03:57.812Z,1.92
2023-05-16T11:06:25.563Z,1.55
2023-05-16T11:09:18.502Z,1.77
2023-05-16T11:11:59.675Z,1.50
2023-05-16T11:14:33.085Z,2.05
2023-05-16T11:17:22.767Z,1.10
2023-05-16T11:19:58.381Z,1.50
2023-05-16T11:22:27.771Z,1.00
2023-05-16T11:25:04.996Z,1.83
2023-05-16T11:27:33.294Z,1.10
2023-05-16T11:30:21.069Z,1.17
2023-05-16T11:32:47.903Z,1.02
2023-05-16T11:35:16.220Z,1.48
2023-05-16T11:37:43.398Z,1.27
2023-05-16T11:40:11.751Z,1.48
2023-05-16T11:42:47.860Z,1.30
2023-05-16T11:45:24.012Z,1.20
2023-05-16T11:47:50.681Z,1.23
2023-05-16T11:50:18.952Z,1.55
2023-05-16T11:52:48.455Z,1.25
2023-05-16T11:55:28.338Z,1.25
2023-05-16T11:58:03.870Z,0.82
2023-05-16T12:00:29.920Z,1.45
2023-05-16T12:03:03.642Z,1.55
2023-05-16T12:05:32.199Z,1.45
2023-05-16T12:07:59.118Z,0.98
2023-05-16T12:10:25.784Z,1.73
2023-05-16T12:12:52.346Z,1.33
2023-05-16T12:15:18.812Z,1.20
2023-05-16T12:17:46.415Z,1.40
2023-05-16T12:20:13.848Z,1.35
2023-05-16T12:22:40.899Z,1.13
2023-05-16T12:25:25.508Z,1.38
2023-05-16T12:27:56.574Z,1.27
2023-05-16T12:30:24.077Z,1.20
2023-05-16T12:33:09.528Z,0.90
2023-05-16T12:35:38.550Z,1.58
2023-05-16T12:38:06.952Z,1.10
2023-05-16T12:40:33.098Z,0.90
2023-05-16T12:43:00.375Z,1.63
2023-05-16T12:45:27.316Z,1.55
2023-05-16T12:47:53.335Z,1.65
2023-05-16T12:50:19.564Z,1.30
2023-05-16T12:52:58.954Z,1.02
2023-05-16T12:55:25.488Z,1.58
2023-05-16T12:57:51.538Z,1.73
2023-05-16T13:00:20.106Z,1.60
2023-05-16T13:02:47.761Z,1.67
2023-05-16T13:05:14.202Z,1.75
2023-05-16T13:07:41.037Z,1.48
2023-05-16T13:10:11.488Z,1.20
2023-05-16T13:12:38.535Z,1.52
2023-05-16T13:15:06.791Z,1.30
2023-05-16T13:17:37.339Z,1.50
2023-05-16T13:20:14.135Z,1.58
2023-05-16T13:22:40.718Z,1.15
2023-05-16T13:25:07.410Z,1.65
2023-05-16T13:27:33.503Z,1.35
2023-05-16T13:29:59.973Z,1.63
2023-05-16T13:32:26.406Z,1.25
2023-05-16T13:34:52.786Z,1.40
2023-05-16T13:37:18.868Z,1.50
2023-05-16T13:39:44.938Z,1.33
2023-05-16T13:42:10.836Z,1.08
2023-05-16T13:44:36.878Z,1.42
2023-05-16T13:47:03.100Z,1.73
2023-05-16T13:49:29.243Z,1.45
2023-05-16T13:51:55.195Z,1.35
2023-05-16T13:54:22.069Z,1.67
2023-05-16T13:56:48.235Z,1.77
2023-05-16T13:59:18.561Z,1.60
2023-05-16T14:01:56.631Z,1.45
2023-05-16T14:04:22.873Z,1.50
2023-05-16T14:06:49.251Z,1.20
2023-05-16T14:09:16.189Z,1.48
2023-05-16T14:11:42.126Z,1.42
2023-05-16T14:14:08.077Z,1.48
2023-05-16T14:16:34.078Z,1.00
2023-05-16T14:19:00.179Z,1.27
2023-05-16T14:21:26.288Z,1.40
2023-05-16T14:23:52.204Z,1.20
2023-05-16T14:26:21.917Z,1.10
2023-05-16T14:28:48.166Z,2.15
2023-05-16T14:31:14.041Z,1.35
2023-05-16T14:33:40.437Z,1.02
2023-05-16T14:36:08.646Z,1.45
2023-05-16T14:38:34.815Z,1.38
2023-05-16T14:41:00.834Z,1.27
2023-05-16T14:43:26.713Z,1.10
2023-05-16T14:45:52.646Z,1.55
2023-05-16T14:48:18.745Z,1.33
2023-05-16T14:50:45.319Z,1.10
2023-05-16T14:53:11.554Z,1.10
2023-05-16T14:55:37.610Z,0.80
2023-05-16T14:58:04.759Z,0.90
2023-05-16T15:00:31.435Z,1.02
2023-05-16T15:02:57.552Z,1.50
2023-05-16T15:05:24.897Z,1.00
2023-05-16T15:07:51.644Z,1.50
2023-05-16T15:10:17.501Z,1.48
2023-05-16T15:12:43.344Z,2.00
2023-05-16T15:15:14.936Z,1.13
2023-05-16T15:17:42.493Z,0.90
2023-05-16T15:20:09.932Z,1.50
2023-05-16T15:22:36.492Z,1.02
2023-05-16T15:25:04.116Z,1.30
2023-05-16T15:27:29.961Z,1.42
2023-05-16T15:29:55.935Z,1.70
2023-05-16T15:32:22.989Z,1.23
2023-05-16T15:34:49.135Z,1.40
2023-05-16T15:37:15.368Z,1.50
2023-05-16T15:39:41.673Z,0.98
2023-05-16T15:42:11.157Z,1.30
2023-05-16T15:44:37.886Z,1.83
2023-05-16T15:47:04.124Z,1.50
2023-05-16T15:49:30.257Z,1.15
2023-05-16T15:51:56.212Z,1.67
2023-05-16T15:54:22.133Z,1.50
2023-05-16T15:56:48.160Z,1.48
2023-05-16T15:59:14.066Z,1.08
2023-05-16T16:01:40.271Z,1.30
2023-05-16T16:04:06.625Z,1.50
2023-05-16T16:06:32.516Z,1.10
2023-05-16T16:08:58.536Z,1.50
2023-05-16T16:11:26.697Z,1.85
2023-05-16T16:13:52.558Z,1.40
2023-05-16T16:16:20.496Z,1.40
2023-05-16T16:18:46.952Z,1.60
2023-05-16T16:21:13.217Z,1.00
2023-05-16T16:23:39.508Z,1.55
2023-05-16T16:26:05.923Z,1.70
2023-05-16T16:28:32.167Z,2.30
2023-05-16T16:30:58.462Z,1.63
2023-05-16T16:33:24.454Z,2.10
2023-05-16T16:35:52.086Z,2.47
2023-05-16T16:38:18.390Z,1.90
2023-05-16T16:40:44.465Z,1.90
2023-05-16T16:43:10.436Z,2.83
2023-05-16T16:45:36.413Z,1.70
2023-05-16T16:48:02.771Z,2.00
2023-05-16T16:50:28.882Z,1.80
2023-05-16T16:52:54.857Z,1.63
2023-05-16T16:55:21.241Z,1.80
2023-05-16T16:57:47.133Z,1.92
2023-05-16T17:00:13.502Z,1.58
2023-05-16T17:02:39.483Z,2.10
2023-05-16T17:05:06.105Z,2.45
2023-05-16T17:07:32.396Z,1.95
2023-05-16T17:09:58.414Z,2.08
2023-05-16T17:12:27.711Z,2.65
2023-05-16T17:14:55.495Z,2.00
2023-05-16T17:17:23.056Z,1.85
2023-05-16T17:19:48.962Z,2.35
2023-05-16T17:22:15.251Z,1.92
2023-05-16T17:24:41.455Z,2.72
2023-05-16T17:27:07.430Z,1.70
2023-05-16T17:29:33.420Z,1.67
2023-05-16T17:31:59.414Z,1.75
2023-05-16T17:34:26.065Z,1.70
2023-05-16T17:36:52.137Z,1.58
2023-05-16T17:39:18.360Z,1.67
2023-05-16T17:41:44.372Z,1.60
2023-05-16T17:44:10.299Z,2.05
2023-05-16T17:46:39.309Z,2.20
2023-05-16T17:49:07.295Z,3.70
2023-05-16T17:51:47.021Z,2.65
2023-05-16T17:54:13.160Z,2.47
2023-05-16T17:56:39.238Z,3.15
2023-05-16T17:59:05.267Z,2.05
2023-05-16T18:01:32.252Z,2.22
2023-05-16T18:03:58.252Z,1.73
2023-05-16T18:06:24.247Z,2.55
2023-05-16T18:08:50.176Z,2.00
2023-05-16T18:11:16.623Z,2.28
2023-05-16T18:13:43.376Z,2.03
2023-05-16T18:16:09.482Z,2.60
2023-05-16T18:18:37.128Z,3.00
2023-05-16T18:21:04.985Z,2.60
2023-05-16T18:23:32.953Z,2.85
2023-05-16T18:25:58.849Z,2.90
2023-05-16T18:28:24.783Z,3.10
2023-05-16T18:30:51.004Z,3.17
2023-05-16T18:33:17.086Z,3.28
2023-05-16T18:35:43.094Z,3.00
2023-05-16T18:38:14.447Z,3.88
2023-05-16T18:40:47.407Z,3.20
2023-05-16T18:43:14.365Z,3.65
2023-05-16T18:45:40.412Z,3.13
2023-05-16T18:48:06.681Z,3.35
2023-05-16T18:50:32.706Z,2.90
2023-05-16T18:52:58.711Z,2.90
2023-05-16T18:55:25.035Z,3.88
2023-05-16T18:57:51.440Z,2.88
2023-05-16T19:00:19.305Z,2.85
2023-05-16T19:02:46.437Z,3.50
2023-05-16T19:05:14.643Z,3.05
2023-05-16T19:07:41.456Z,3.40
2023-05-16T19:10:08.421Z,3.05
2023-05-16T19:12:34.609Z,2.92
2023-05-16T19:15:00.964Z,3.03
2023-05-16T19:17:27.174Z,2.45
2023-05-16T19:19:53.215Z,4.00
2023-05-16T19:22:19.372Z,3.58
2023-05-16T19:24:45.577Z,3.45
2023-05-16T19:27:11.582Z,3.20
2023-05-16T19:29:37.536Z,3.55
2023-05-16T19:32:04.029Z,3.20
2023-05-16T19:34:30.258Z,3.10
2023-05-16T19:36:56.449Z,2.78
2023-05-16T19:39:22.582Z,3.80
2023-05-16T19:41:52.186Z,3.47
2023-05-16T19:44:19.105Z,3.42
2023-05-16T19:46:45.588Z,2.92
2023-05-16T19:49:11.662Z,3.78
2023-05-16T19:51:41.769Z,3.10
2023-05-16T19:54:08.700Z,3.65
2023-05-16T19:56:34.914Z,3.30
2023-05-16T19:59:00.917Z,3.45
2023-05-16T20:01:27.086Z,3.17
2023-05-16T20:03:53.371Z,3.80
2023-05-16T20:06:19.418Z,3.08
2023-05-16T20:08:45.618Z,3.22
2023-05-16T20:11:12.571Z,4.15
2023-05-16T20:13:38.622Z,3.88
2023-05-16T20:16:05.135Z,3.38
2023-05-16T20:18:31.127Z,3.35
2023-05-16T20:20:58.590Z,3.33
2023-05-16T20:23:24.852Z,3.15
2023-05-16T20:25:50.864Z,3.13
2023-05-16T20:28:16.956Z,3.25
2023-05-16T20:30:42.879Z,3.15
2023-05-16T20:33:08.844Z,3.63
2023-05-16T20:35:34.779Z,2.88
2023-05-16T20:38:00.692Z,2.90
2023-05-16T20:40:26.741Z,2.92
2023-05-16T20:42:52.626Z,2.90
2023-05-16T20:45:18.477Z,3.15
2023-05-16T20:47:44.481Z,3.15
2023-05-16T20:50:10.567Z,3.40
2023-05-16T20:52:36.446Z,2.63
2023-05-16T20:55:02.462Z,3.15
2023-05-16T20:57:28.316Z,3.50
2023-05-16T20:59:54.180Z,2.78
2023-05-16T21:02:20.353Z,2.88
2023-05-16T21:04:46.654Z,2.80
2023-05-16T21:07:12.881Z,3.30
2023-05-16T21:09:39.417Z,2.83
2023-05-16T21:12:05.738Z,3.17
2023-05-16T21:14:31.678Z,2.90
2023-05-16T21:16:57.533Z,2.72
2023-05-16T21:19:23.581Z,2.80
2023-05-16T21:21:49.801Z,2.63
2023-05-16T21:24:15.686Z,2.90
2023-05-16T21:26:41.673Z,3.05
2023-05-16T21:29:07.646Z,3.08
2023-05-16T21:31:33.536Z,2.70
2023-05-16T21:33:59.488Z,3.13
2023-05-16T21:36:25.591Z,3.60
2023-05-16T21:38:51.738Z,3.03
2023-05-16T21:41:18.761Z,3.30
2023-05-16T21:43:44.730Z,3.20
2023-05-16T21:46:10.624Z,3.20
2023-05-16T21:48:36.674Z,3.47
2023-05-16T21:51:03.327Z,3.08
2023-05-16T21:53:29.418Z,2.92
2023-05-16T21:55:55.284Z,2.90
2023-05-16T21:58:21.368Z,3.55
2023-05-16T22:00:47.412Z,2.85
2023-05-16T22:03:13.652Z,2.60
2023-05-16T22:05:39.604Z,3.17
2023-05-16T22:08:07.230Z,2.85
2023-05-16T22:10:33.086Z,2.40
2023-05-16T22:12:59.104Z,2.65
2023-05-16T22:15:25.138Z,2.00
2023-05-16T22:17:51.250Z,2.50
2023-05-16T22:20:17.648Z,3.08
2023-05-16T22:22:44.183Z,2.38
2023-05-16T22:25:10.161Z,2.50
2023-05-16T22:27:36.019Z,2.35
2023-05-16T22:30:01.936Z,2.00
2023-05-16T22:32:28.167Z,2.30
2023-05-16T22:34:54.053Z,2.85
2023-05-16T22:37:19.929Z,2.60
2023-05-16T22:39:45.986Z,2.15
2023-05-16T22:42:11.808Z,2.22
2023-05-16T22:44:37.672Z,2.78
2023-05-16T22:47:03.754Z,2.83
2023-05-16T22:49:29.873Z,2.67
2023-05-16T22:51:55.762Z,3.50
2023-05-16T22:54:21.691Z,2.92
2023-05-16T22:56:47.546Z,3.17
2023-05-16T22:59:14.255Z,2.28
2023-05-16T23:01:40.248Z,2.65
2023-05-16T23:04:06.201Z,2.75
2023-05-16T23:06:32.313Z,3.00
2023-05-16T23:08:59.742Z,2.50
2023-05-16T23:11:25.733Z,3.55
2023-05-16T23:13:53.974Z,2.90
2023-05-16T23:16:19.854Z,2.75
2023-05-16T23:18:45.827Z,2.88
2023-05-16T23:21:11.774Z,2.90
2023-05-16T23:23:37.707Z,2.28
2023-05-16T23:26:03.645Z,3.15
2023-05-16T23:28:29.613Z,2.75
2023-05-16T23:30:55.612Z,2.40
2023-05-16T23:33:21.580Z,3.03
2023-05-16T23:35:47.540Z,2.47
2023-05-16T23:38:13.372Z,3.03
2023-05-16T23:40:39.236Z,2.83
2023-05-16T23:43:05.129Z,2.75
2023-05-16T23:45:31.020Z,3.33
2023-05-16T23:47:57.267Z,3.38
2023-05-16T23:50:23.310Z,2.80
2023-05-16T23:52:49.948Z,3.13
2023-05-16T23:55:15.983Z,2.95
2023-05-16T23:57:41.935Z,3.03
